Airfield :
LOGIN :

Register | Disclaimer

   EN    FR    IT 

 










Legend :    VFR   Marginal VFR   IFR   Intensive IFR   Very Intensive IFR
Visi :
Ceiling :
>= 8 km
>= 3000ft
5 to 8 km
1000 to 3000 ft
1500m to 5 km
500 to 1000 ft
800 to 1500m
200 to 500 ft
< 800m
< 200 ft
Symbols :   Thunderstorms  Fog  Heavy snow  Heavy precipitations  Wind > 20 kt
SIGMETs :     Misc.  Thunderstorms  Icing  Turbulence  Mountain Waves  Volcanic Ashes






- Airport Elevation : 400 ft
- IATA code : BNX


LQBK - Banja Luka

CURRENT METAR :
  • 100330Z 21002KT CAVOK 08/07 Q1017 NOSIG

EXPIRED METARs :
  • 100300Z 33002KT CAVOK 08/07 Q1017 NOSIG
  • 100230Z 19004KT CAVOK 08/07 Q1017 NOSIG
  • 100200Z 19002KT CAVOK 08/07 Q1017 NOSIG
  • 100130Z 17004KT CAVOK 08/07 Q1017 NOSIG
  • 100100Z 20002KT CAVOK 08/07 Q1017 NOSIG

TAF TAF LQBK
Valid from the 10 at 00:00 until the 11 at 00:00 UTC


092300Z 1000/1024 VRB02KT CAVOK TX26/1014Z TN05/1004Z



MET'MAP, your aeronautical weather chart ! - Copyright ORBIFLY December 2007 - Disclaimer

ORBIFLY MET'MAP TEAM :

Programming & Development : Alexandra Zaïnal
Concept & original design : Baudouin d'Aumeries
Assistance for programming : Marc-Olivier Méhu
Technical & hardware support : Manuel Goepfert

Contact : metmap@orbifly.com




SOURCES & CREDITS :

   NOAA